createdAt,value
2019-05-07T00:01:06.473Z,73.10
2019-05-07T00:03:36.275Z,73.10
2019-05-07T00:06:06.141Z,73.50
2019-05-07T00:08:35.661Z,73.40
2019-05-07T00:11:05.549Z,73.70
2019-05-07T00:13:35.072Z,73.90
2019-05-07T00:16:04.687Z,74.10
2019-05-07T00:18:34.464Z,74.40
2019-05-07T00:21:04.083Z,74.40
2019-05-07T00:23:33.877Z,74.50
2019-05-07T00:26:03.590Z,74.60
2019-05-07T00:28:33.405Z,74.50
2019-05-07T00:31:03.331Z,74.40
2019-05-07T00:33:34.501Z,74.50
2019-05-07T00:36:05.753Z,74.60
2019-05-07T00:38:37.169Z,74.40
2019-05-07T00:41:12.535Z,74.20
2019-05-07T00:43:43.985Z,74.60
2019-05-07T00:46:16.357Z,74.70
2019-05-07T00:48:46.243Z,74.90
2019-05-07T00:51:23.818Z,74.80
2019-05-07T00:53:53.769Z,75.10
2019-05-07T00:56:23.449Z,74.80
2019-05-07T00:58:53.265Z,75.10
2019-05-07T01:01:23.269Z,75.00
2019-05-07T01:03:53.512Z,75.10
2019-05-07T01:06:26.386Z,75.10
2019-05-07T01:08:54.982Z,75.70
2019-05-07T01:11:24.909Z,75.30
2019-05-07T01:13:54.809Z,75.50
2019-05-07T01:16:24.715Z,75.80
2019-05-07T01:18:54.643Z,76.00
2019-05-07T01:21:24.541Z,75.30
2019-05-07T01:23:54.470Z,75.40
2019-05-07T01:26:24.383Z,75.50
2019-05-07T01:29:02.984Z,75.50
2019-05-07T01:31:37.477Z,75.50
2019-05-07T01:34:23.969Z,75.70
2019-05-07T01:36:53.494Z,75.50
2019-05-07T01:39:23.313Z,75.50
2019-05-07T01:41:53.349Z,75.70
2019-05-07T01:44:22.891Z,75.70
2019-05-07T01:46:55.279Z,75.40
2019-05-07T01:49:25.162Z,75.60
2019-05-07T01:51:55.061Z,75.70
2019-05-07T01:54:24.605Z,76.00
2019-05-07T01:56:54.474Z,76.10
2019-05-07T01:59:25.222Z,76.10
2019-05-07T02:01:56.394Z,76.30
2019-05-07T02:04:32.549Z,76.30
2019-05-07T02:07:06.535Z,76.20
2019-05-07T02:09:42.436Z,76.10
2019-05-07T02:12:16.410Z,76.10
2019-05-07T02:14:46.003Z,76.40
2019-05-07T02:17:15.593Z,76.30
2019-05-07T02:19:45.425Z,76.40
2019-05-07T02:22:14.973Z,76.00
2019-05-07T02:24:44.893Z,76.20
2019-05-07T02:27:14.764Z,76.30
2019-05-07T02:29:44.778Z,76.30
2019-05-07T02:32:14.702Z,76.40
2019-05-07T02:34:44.621Z,76.50
2019-05-07T02:37:16.154Z,76.00
2019-05-07T02:39:47.762Z,76.50
2019-05-07T02:42:17.623Z,76.80
2019-05-07T02:45:05.473Z,76.80
2019-05-07T02:47:36.080Z,76.70
2019-05-07T02:50:07.993Z,76.70
2019-05-07T02:52:43.798Z,76.90
2019-05-07T02:55:18.247Z,77.00
2019-05-07T02:57:49.105Z,77.20
2019-05-07T03:00:19.499Z,77.10
2019-05-07T03:02:49.374Z,81.30
2019-05-07T03:05:19.227Z,77.10
2019-05-07T03:07:49.111Z,77.00
2019-05-07T03:10:23.749Z,77.00
2019-05-07T03:12:54.158Z,77.20
2019-05-07T03:15:24.794Z,76.90
2019-05-07T03:17:55.937Z,77.10
2019-05-07T03:20:43.979Z,77.50
2019-05-07T03:23:15.356Z,77.30
2019-05-07T03:25:49.625Z,77.20
2019-05-07T03:28:23.121Z,77.10
2019-05-07T03:31:05.969Z,77.40
2019-05-07T03:33:47.176Z,77.50
2019-05-07T03:36:16.497Z,77.20
2019-05-07T03:38:44.700Z,77.30
2019-05-07T03:41:14.523Z,77.60
2019-05-07T03:43:44.520Z,77.50
2019-05-07T03:46:16.039Z,77.80
2019-05-07T03:48:46.682Z,78.00
2019-05-07T03:51:16.259Z,77.90
2019-05-07T03:53:47.767Z,77.90
2019-05-07T03:56:17.703Z,77.70
2019-05-07T03:58:47.238Z,77.60
2019-05-07T04:01:17.311Z,77.90
2019-05-07T04:03:47.039Z,77.60
2019-05-07T04:06:16.813Z,77.90
2019-05-07T04:08:46.457Z,77.80
2019-05-07T04:11:16.050Z,77.80
2019-05-07T04:13:46.001Z,78.00
2019-05-07T04:16:16.064Z,78.00
2019-05-07T04:18:45.724Z,78.30
2019-05-07T04:21:15.269Z,78.20
2019-05-07T04:23:45.138Z,78.40
2019-05-07T04:26:25.437Z,78.10
2019-05-07T04:28:59.892Z,78.50
2019-05-07T04:31:34.175Z,78.60
2019-05-07T04:34:04.559Z,78.40
2019-05-07T04:36:35.628Z,78.40
2019-05-07T04:39:08.046Z,78.40
2019-05-07T04:41:38.090Z,78.20
2019-05-07T04:44:07.897Z,78.30
2019-05-07T04:46:37.832Z,78.80
2019-05-07T04:49:07.724Z,78.60
2019-05-07T04:51:43.360Z,78.80
2019-05-07T04:54:13.497Z,79.50
2019-05-07T04:56:43.803Z,78.50
2019-05-07T04:59:13.964Z,78.80
2019-05-07T05:01:45.494Z,78.70
2019-05-07T05:04:25.797Z,78.70
2019-05-07T05:06:46.963Z,78.50
2019-05-07T05:09:17.048Z,78.50
2019-05-07T05:11:46.769Z,78.10
2019-05-07T05:14:16.722Z,78.10
2019-05-07T05:16:46.597Z,78.20
2019-05-07T05:19:16.539Z,78.70
2019-05-07T05:21:52.867Z,78.30
2019-05-07T05:24:24.136Z,78.70
2019-05-07T05:26:53.672Z,78.60
2019-05-07T05:29:23.561Z,78.70
2019-05-07T05:31:53.466Z,78.80
2019-05-07T05:34:23.394Z,78.90
2019-05-07T05:36:53.362Z,78.90
2019-05-07T05:39:23.266Z,78.90
2019-05-07T05:41:54.761Z,79.10
2019-05-07T05:44:34.600Z,79.00
2019-05-07T05:47:04.486Z,78.80
2019-05-07T05:49:34.325Z,78.70
2019-05-07T05:52:12.433Z,78.70
2019-05-07T05:54:44.007Z,78.60
2019-05-07T05:57:32.312Z,78.50
2019-05-07T06:00:09.822Z,78.80
2019-05-07T06:02:44.162Z,78.80
2019-05-07T06:05:34.236Z,79.80
2019-05-07T06:11:15.809Z,78.80
2019-05-07T06:13:53.139Z,78.70
2019-05-07T06:16:27.334Z,78.80
2019-05-07T06:19:08.144Z,78.80
2019-05-07T06:21:41.771Z,78.90
2019-05-07T06:24:12.661Z,78.70
2019-05-07T06:26:42.614Z,78.50
2019-05-07T06:29:12.497Z,78.30
2019-05-07T06:31:42.233Z,78.30
2019-05-07T06:34:12.442Z,78.20
2019-05-07T06:36:42.680Z,78.30
2019-05-07T06:39:14.649Z,78.30
2019-05-07T06:45:02.930Z,78.00
2019-05-07T06:47:34.833Z,78.50
2019-05-07T06:50:07.022Z,78.40
2019-05-07T06:52:36.702Z,78.20
2019-05-07T06:55:07.089Z,78.10
2019-05-07T06:57:37.421Z,78.00
2019-05-07T07:00:16.393Z,77.80
2019-05-07T07:02:47.830Z,77.70
2019-05-07T07:05:34.965Z,77.90
2019-05-07T07:08:18.626Z,78.00
2019-05-07T07:13:42.635Z,77.40
2019-05-07T07:16:12.773Z,76.90
2019-05-07T07:18:52.069Z,76.50
2019-05-07T07:21:14.177Z,76.10
2019-05-07T07:23:44.078Z,76.30
2019-05-07T07:26:14.015Z,76.50
2019-05-07T07:28:43.949Z,76.50
2019-05-07T07:31:22.630Z,76.00
2019-05-07T07:33:54.389Z,76.00
2019-05-07T07:36:26.020Z,76.10
2019-05-07T07:38:55.857Z,75.70
2019-05-07T07:41:36.689Z,74.80
2019-05-07T07:44:06.808Z,74.60
2019-05-07T07:46:37.073Z,74.10
2019-05-07T07:49:11.481Z,75.00
2019-05-07T07:51:42.170Z,75.40
2019-05-07T07:54:10.099Z,75.70
2019-05-07T07:56:50.056Z,75.30
2019-05-07T07:59:24.153Z,74.90
2019-05-07T08:01:55.409Z,75.10
2019-05-07T08:04:25.314Z,75.00
2019-05-07T08:07:03.642Z,74.50
2019-05-07T08:09:37.559Z,73.80
2019-05-07T08:12:07.717Z,74.70
2019-05-07T08:14:37.725Z,74.20
2019-05-07T08:17:08.970Z,73.50
2019-05-07T08:19:38.721Z,74.20
2019-05-07T08:22:08.264Z,73.80
2019-05-07T08:24:38.155Z,72.00
2019-05-07T08:27:08.101Z,72.30
2019-05-07T08:29:37.980Z,72.90
2019-05-07T08:32:18.376Z,73.20
2019-05-07T08:34:55.544Z,73.80
2019-05-07T08:37:25.350Z,73.20
2019-05-07T08:39:56.135Z,73.20
2019-05-07T08:42:25.225Z,72.80
2019-05-07T08:45:03.046Z,61.20
2019-05-07T08:47:34.513Z,73.60
2019-05-07T08:50:06.169Z,72.70
2019-05-07T08:52:36.045Z,72.00
2019-05-07T08:55:09.120Z,71.30
2019-05-07T08:57:41.936Z,70.90
2019-05-07T09:00:32.675Z,69.80
2019-05-07T09:03:02.741Z,69.80
2019-05-07T09:05:32.468Z,67.90
2019-05-07T09:08:02.509Z,68.80
2019-05-07T09:10:32.636Z,68.80
2019-05-07T09:13:02.815Z,67.20
2019-05-07T09:15:32.562Z,67.00
2019-05-07T09:18:02.170Z,68.00
2019-05-07T09:20:32.309Z,68.20
2019-05-07T09:23:02.223Z,67.70
2019-05-07T09:25:33.570Z,66.90
2019-05-07T09:28:03.572Z,65.20
2019-05-07T09:30:42.119Z,67.20
2019-05-07T09:33:13.548Z,66.40
2019-05-07T09:35:45.083Z,66.40
2019-05-07T09:38:14.998Z,66.10
2019-05-07T09:40:44.912Z,67.10
2019-05-07T09:43:14.876Z,66.30
2019-05-07T09:45:44.821Z,64.80
2019-05-07T09:48:14.734Z,64.20
2019-05-07T09:50:44.573Z,63.00
2019-05-07T09:53:14.469Z,61.60
2019-05-07T09:55:44.403Z,61.00
2019-05-07T09:58:14.364Z,60.10
2019-05-07T10:00:44.284Z,60.00
2019-05-07T10:03:14.272Z,58.80
2019-05-07T10:05:44.111Z,58.20
2019-05-07T10:08:14.248Z,59.00
2019-05-07T10:10:45.662Z,57.60
2019-05-07T10:13:19.941Z,58.40
2019-05-07T10:15:49.545Z,58.40
2019-05-07T10:18:19.633Z,58.20
2019-05-07T10:20:49.424Z,57.50
2019-05-07T10:23:23.141Z,57.20
2019-05-07T10:25:53.837Z,57.70
2019-05-07T10:28:23.637Z,56.20
2019-05-07T10:30:54.194Z,55.70
2019-05-07T10:33:24.080Z,56.30
2019-05-07T10:35:53.755Z,56.10
2019-05-07T10:38:24.030Z,55.50
2019-05-07T10:40:53.977Z,56.10
2019-05-07T10:43:23.830Z,56.00
2019-05-07T10:45:58.317Z,55.40
2019-05-07T10:48:32.505Z,56.50
2019-05-07T10:51:06.185Z,57.00
2019-05-07T10:53:35.872Z,55.60
2019-05-07T10:56:05.865Z,54.60
2019-05-07T10:58:35.703Z,54.40
2019-05-07T11:01:07.033Z,55.60
2019-05-07T11:03:36.757Z,54.70
2019-05-07T11:06:06.790Z,55.20
2019-05-07T11:08:36.593Z,54.70
2019-05-07T11:11:25.486Z,55.70
2019-05-07T11:13:56.125Z,54.90
2019-05-07T11:16:26.713Z,54.30
2019-05-07T11:18:56.301Z,46.60
2019-05-07T11:21:33.264Z,52.80
2019-05-07T11:24:03.661Z,53.60
2019-05-07T11:26:33.468Z,53.80
2019-05-07T11:29:03.353Z,54.70
2019-05-07T11:31:33.379Z,53.40
2019-05-07T11:34:03.247Z,51.80
2019-05-07T11:36:34.406Z,53.00
2019-05-07T11:39:06.486Z,52.90
2019-05-07T11:41:46.897Z,53.20
2019-05-07T11:44:18.388Z,52.80
2019-05-07T11:46:58.873Z,52.30
2019-05-07T11:49:32.624Z,52.50
2019-05-07T11:52:03.290Z,52.70
2019-05-07T11:54:33.221Z,52.50
2019-05-07T11:57:03.154Z,52.50
2019-05-07T11:59:33.045Z,53.00
2019-05-07T12:02:04.585Z,53.10
2019-05-07T12:04:53.458Z,53.00
2019-05-07T12:07:23.329Z,53.30
2019-05-07T12:09:53.192Z,52.70
2019-05-07T12:12:23.112Z,53.20
2019-05-07T12:14:53.009Z,52.90
2019-05-07T12:17:23.006Z,53.10
2019-05-07T12:19:52.842Z,52.10
2019-05-07T12:22:42.435Z,52.10
2019-05-07T12:25:22.808Z,51.50
2019-05-07T12:27:53.210Z,50.90
2019-05-07T12:30:42.822Z,51.10
2019-05-07T12:33:20.178Z,50.90
2019-05-07T12:35:50.077Z,51.00
2019-05-07T12:38:21.963Z,51.40
2019-05-07T12:40:52.404Z,50.80
2019-05-07T12:43:22.276Z,51.50
2019-05-07T12:45:52.458Z,50.70
2019-05-07T12:48:22.525Z,50.90
2019-05-07T12:50:52.437Z,50.00
2019-05-07T12:53:31.452Z,50.10
2019-05-07T12:56:02.922Z,49.90
2019-05-07T12:58:32.488Z,51.40
2019-05-07T13:01:06.751Z,50.70
2019-05-07T13:03:42.804Z,50.70
2019-05-07T13:06:12.556Z,50.40
2019-05-07T13:08:42.477Z,52.00
2019-05-07T13:11:13.241Z,51.90
2019-05-07T13:13:44.301Z,50.30
2019-05-07T13:16:13.388Z,51.60
2019-05-07T13:18:42.865Z,46.10
2019-05-07T13:21:12.959Z,50.70
2019-05-07T13:23:42.688Z,50.40
2019-05-07T13:26:12.871Z,49.90
2019-05-07T13:28:44.332Z,51.60
2019-05-07T13:31:14.105Z,50.60
2019-05-07T13:33:45.742Z,51.90
2019-05-07T13:36:15.814Z,50.80
2019-05-07T13:38:47.175Z,51.00
2019-05-07T13:41:24.045Z,50.40
2019-05-07T13:44:02.964Z,51.20
2019-05-07T13:46:34.631Z,50.80
2019-05-07T13:49:04.444Z,50.50
2019-05-07T13:51:35.651Z,49.80
2019-05-07T13:54:05.568Z,50.70
2019-05-07T13:56:35.422Z,49.90
2019-05-07T13:59:05.385Z,50.70
2019-05-07T14:01:36.917Z,50.60
2019-05-07T14:04:06.825Z,50.10
2019-05-07T14:06:39.143Z,49.80
2019-05-07T14:09:12.589Z,49.60
2019-05-07T14:11:42.418Z,49.70
2019-05-07T14:14:12.417Z,50.20
2019-05-07T14:16:44.981Z,49.60
2019-05-07T14:19:14.165Z,49.80
2019-05-07T14:21:43.924Z,48.90
2019-05-07T14:24:14.842Z,49.10
2019-05-07T14:26:44.571Z,50.20
2019-05-07T14:29:14.498Z,49.30
2019-05-07T14:31:45.296Z,49.80
2019-05-07T14:34:16.002Z,49.80
2019-05-07T14:36:56.141Z,46.40
2019-05-07T14:39:26.044Z,50.40
2019-05-07T14:41:57.585Z,50.10
2019-05-07T14:44:45.515Z,50.80
2019-05-07T14:47:16.267Z,49.60
2019-05-07T14:49:46.616Z,49.70
2019-05-07T14:52:28.956Z,49.90
2019-05-07T14:54:48.121Z,49.10
2019-05-07T14:57:18.126Z,49.90
2019-05-07T14:59:48.018Z,50.00
2019-05-07T15:02:18.014Z,49.80
2019-05-07T15:04:47.992Z,50.00
2019-05-07T15:07:18.906Z,49.20
2019-05-07T15:09:51.754Z,49.00
2019-05-07T15:12:23.072Z,50.10
2019-05-07T15:14:52.969Z,49.40
2019-05-07T15:17:28.561Z,49.30
2019-05-07T15:19:58.473Z,49.00
2019-05-07T15:22:45.495Z,49.00
2019-05-07T15:25:02.880Z,49.00
2019-05-07T15:27:52.682Z,49.20
2019-05-07T15:30:24.433Z,49.20
2019-05-07T15:32:54.206Z,48.70
2019-05-07T15:35:24.068Z,49.10
2019-05-07T15:37:54.029Z,49.70
2019-05-07T15:40:23.881Z,48.90
2019-05-07T15:42:53.784Z,48.40
2019-05-07T15:45:23.732Z,49.00
2019-05-07T15:47:55.265Z,49.10
2019-05-07T15:50:26.907Z,48.30
2019-05-07T15:53:12.272Z,47.60
2019-05-07T15:55:41.857Z,48.30
2019-05-07T15:58:12.135Z,47.90
2019-05-07T16:00:42.657Z,48.10
2019-05-07T16:03:13.986Z,48.00
2019-05-07T16:05:43.925Z,48.30
2019-05-07T16:08:15.474Z,47.70
2019-05-07T16:10:45.393Z,47.70
2019-05-07T16:13:17.002Z,48.20
2019-05-07T16:15:46.881Z,48.50
2019-05-07T16:18:32.516Z,48.60
2019-05-07T16:21:02.135Z,47.80
2019-05-07T16:23:33.386Z,48.90
2019-05-07T16:26:05.315Z,48.40
2019-05-07T16:28:34.921Z,47.60
2019-05-07T16:31:04.773Z,47.70
2019-05-07T16:33:34.921Z,47.10
2019-05-07T16:36:04.604Z,47.90
2019-05-07T16:38:34.536Z,46.40
2019-05-07T16:41:04.908Z,47.10
2019-05-07T16:43:34.762Z,46.90
2019-05-07T16:46:04.732Z,46.90
2019-05-07T16:48:34.596Z,47.20
2019-05-07T16:51:04.586Z,47.00
2019-05-07T16:53:36.319Z,47.60
2019-05-07T16:56:05.933Z,48.10
2019-05-07T16:58:49.252Z,47.60
2019-05-07T17:01:18.961Z,47.70
2019-05-07T17:03:52.086Z,47.40
2019-05-07T17:06:25.045Z,48.20
2019-05-07T17:09:02.632Z,47.80
2019-05-07T17:11:32.481Z,48.10
2019-05-07T17:14:02.419Z,48.00
2019-05-07T17:16:32.296Z,47.90
2019-05-07T17:19:02.534Z,47.70
2019-05-07T17:21:32.694Z,47.80
2019-05-07T17:24:02.745Z,46.90
2019-05-07T17:26:32.401Z,47.30
2019-05-07T17:29:02.682Z,48.10
2019-05-07T17:31:32.759Z,47.80
2019-05-07T17:34:22.171Z,48.00
2019-05-07T17:36:52.466Z,47.70
2019-05-07T17:39:22.715Z,47.90
2019-05-07T17:41:52.378Z,47.90
2019-05-07T17:44:23.294Z,47.20
2019-05-07T17:46:53.052Z,47.80
2019-05-07T17:49:23.040Z,47.10
2019-05-07T17:51:52.954Z,47.70
2019-05-07T17:54:22.877Z,47.30
2019-05-07T17:57:14.288Z,47.20
2019-05-07T17:59:43.213Z,47.30
2019-05-07T18:02:22.007Z,47.00
2019-05-07T18:04:54.553Z,48.00
2019-05-07T18:07:23.196Z,47.70
2019-05-07T18:09:53.041Z,48.00
2019-05-07T18:12:22.961Z,48.10
2019-05-07T18:14:52.946Z,48.00
2019-05-07T18:17:24.430Z,47.80
2019-05-07T18:19:54.440Z,48.00
2019-05-07T18:22:25.096Z,48.60
2019-05-07T18:24:55.006Z,48.50
2019-05-07T18:27:25.180Z,48.30
2019-05-07T18:29:54.835Z,48.20
2019-05-07T18:32:26.849Z,48.40
2019-05-07T18:34:56.726Z,48.70
2019-05-07T18:37:26.617Z,49.50
2019-05-07T18:39:56.579Z,49.30
2019-05-07T18:42:26.434Z,49.40
2019-05-07T18:44:55.969Z,49.20
2019-05-07T18:47:25.857Z,49.60
2019-05-07T18:49:55.833Z,50.00
2019-05-07T18:52:25.701Z,50.40
2019-05-07T18:54:55.622Z,50.40
2019-05-07T18:57:25.524Z,50.20
2019-05-07T18:59:55.074Z,50.90
2019-05-07T19:02:25.085Z,50.20
2019-05-07T19:04:54.953Z,50.30
2019-05-07T19:07:24.769Z,50.50
2019-05-07T19:09:54.698Z,50.60
2019-05-07T19:12:25.980Z,51.10
2019-05-07T19:14:55.893Z,50.60
2019-05-07T19:17:25.862Z,50.80
2019-05-07T19:19:55.705Z,51.50
2019-05-07T19:22:25.598Z,50.60
2019-05-07T19:24:55.501Z,51.20
2019-05-07T19:27:25.461Z,51.50
2019-05-07T19:29:55.339Z,51.30
2019-05-07T19:32:29.435Z,51.90
2019-05-07T19:34:59.256Z,51.70
2019-05-07T19:37:29.197Z,52.00
2019-05-07T19:40:01.895Z,52.00
2019-05-07T19:42:31.921Z,52.20
2019-05-07T19:45:02.667Z,52.50
2019-05-07T19:47:32.811Z,52.20
2019-05-07T19:50:03.030Z,51.90
2019-05-07T19:52:33.236Z,52.40
2019-05-07T19:55:04.779Z,52.30
2019-05-07T19:57:39.736Z,52.80
2019-05-07T20:00:12.013Z,53.50
2019-05-07T20:02:49.508Z,53.20
2019-05-07T20:05:19.101Z,52.90
2019-05-07T20:07:49.045Z,53.40
2019-05-07T20:10:20.655Z,53.60
2019-05-07T20:12:52.167Z,53.10
2019-05-07T20:15:22.449Z,53.50
2019-05-07T20:17:52.666Z,53.40
2019-05-07T20:20:22.393Z,53.70
2019-05-07T20:22:52.221Z,53.50
2019-05-07T20:25:22.641Z,54.30
2019-05-07T20:27:52.711Z,54.00
2019-05-07T20:30:22.957Z,54.60
2019-05-07T20:32:52.694Z,54.60
2019-05-07T20:35:22.725Z,54.90
2019-05-07T20:37:52.522Z,54.90
2019-05-07T20:40:22.749Z,54.60
2019-05-07T20:42:52.883Z,55.10
2019-05-07T20:45:23.868Z,55.10
2019-05-07T20:47:54.129Z,55.10
2019-05-07T20:50:23.803Z,54.90
2019-05-07T20:52:53.690Z,55.00
2019-05-07T20:55:33.909Z,55.00
2019-05-07T20:58:03.201Z,55.30
2019-05-07T21:00:32.911Z,55.50
2019-05-07T21:03:23.343Z,55.20
2019-05-07T21:05:53.409Z,55.60
2019-05-07T21:08:23.435Z,55.70
2019-05-07T21:10:53.709Z,55.80
2019-05-07T21:13:30.830Z,55.90
2019-05-07T21:15:55.255Z,55.90
2019-05-07T21:18:26.753Z,56.00
2019-05-07T21:20:56.284Z,56.00
2019-05-07T21:23:26.715Z,55.90
2019-05-07T21:25:56.666Z,56.80
2019-05-07T21:28:26.549Z,56.50
2019-05-07T21:30:56.478Z,56.60
2019-05-07T21:33:26.377Z,56.40
2019-05-07T21:35:56.314Z,56.70
2019-05-07T21:38:26.610Z,56.90
2019-05-07T21:40:56.540Z,57.00
2019-05-07T21:43:26.441Z,57.10
2019-05-07T21:45:56.407Z,57.20
2019-05-07T21:48:26.260Z,57.10
2019-05-07T21:50:56.452Z,56.60
2019-05-07T21:53:32.218Z,57.30
2019-05-07T21:56:15.100Z,57.40
2019-05-07T21:58:49.212Z,57.60
2019-05-07T22:01:21.878Z,57.50
2019-05-07T22:03:53.600Z,57.30
2019-05-07T22:06:23.597Z,57.00
2019-05-07T22:08:54.840Z,57.60
2019-05-07T22:11:25.822Z,57.30
2019-05-07T22:13:55.791Z,57.40
2019-05-07T22:16:25.705Z,57.30
2019-05-07T22:18:55.544Z,57.40
2019-05-07T22:21:25.488Z,57.30
2019-05-07T22:23:55.377Z,57.40
2019-05-07T22:26:26.568Z,57.40
2019-05-07T22:28:56.424Z,57.20
2019-05-07T22:31:37.000Z,57.50
2019-05-07T22:34:23.884Z,57.30
2019-05-07T22:36:55.051Z,57.70
2019-05-07T22:39:24.826Z,57.90
2019-05-07T22:41:55.917Z,57.30
2019-05-07T22:44:26.475Z,58.20
2019-05-07T22:46:58.256Z,57.40
2019-05-07T22:49:28.177Z,57.50
2019-05-07T22:51:58.046Z,57.80
2019-05-07T22:54:27.941Z,58.10
2019-05-07T22:57:13.955Z,58.30
2019-05-07T22:59:43.370Z,58.40
2019-05-07T23:02:13.037Z,58.40
2019-05-07T23:04:43.228Z,58.40
2019-05-07T23:07:13.079Z,58.20
2019-05-07T23:09:44.897Z,59.70
2019-05-07T23:12:14.137Z,58.50
2019-05-07T23:14:44.854Z,58.90
2019-05-07T23:17:14.389Z,59.10
2019-05-07T23:19:43.921Z,60.10
2019-05-07T23:22:13.912Z,60.40
2019-05-07T23:24:43.801Z,60.50
2019-05-07T23:27:14.852Z,60.80
2019-05-07T23:29:44.902Z,61.30
2019-05-07T23:32:16.896Z,61.70
2019-05-07T23:34:46.749Z,61.90
2019-05-07T23:37:16.697Z,61.30
2019-05-07T23:39:48.201Z,61.50
2019-05-07T23:42:37.837Z,62.10
2019-05-07T23:45:07.943Z,61.60
2019-05-07T23:47:37.650Z,61.80
2019-05-07T23:50:07.584Z,62.20
2019-05-07T23:52:37.459Z,62.40
2019-05-07T23:55:07.585Z,62.50
2019-05-07T23:57:37.281Z,62.80
